sensor_id;sensor_type;location;lat;lon;timestamp;temperature;humidity
35593;DHT22;64447;52.140;5.602;2023-11-22T00:02:17;7.10;99.90
35593;DHT22;64447;52.140;5.602;2023-11-22T00:04:43;7.30;99.90
35593;DHT22;64447;52.140;5.602;2023-11-22T00:07:09;7.30;99.90
35593;DHT22;64447;52.140;5.602;2023-11-22T00:09:35;7.30;99.90
35593;DHT22;64447;52.140;5.602;2023-11-22T00:12:01;7.30;99.90
35593;DHT22;64447;52.140;5.602;2023-11-22T00:14:26;7.50;99.90
35593;DHT22;64447;52.140;5.602;2023-11-22T00:16:52;7.50;99.90
35593;DHT22;64447;52.140;5.602;2023-11-22T00:19:18;7.50;99.90
35593;DHT22;64447;52.140;5.602;2023-11-22T00:21:47;7.90;99.90
35593;DHT22;64447;52.140;5.602;2023-11-22T00:24:13;7.60;99.90
35593;DHT22;64447;52.140;5.602;2023-11-22T00:26:39;7.80;99.90
35593;DHT22;64447;52.140;5.602;2023-11-22T00:29:04;7.80;99.90
35593;DHT22;64447;52.140;5.602;2023-11-22T00:31:30;7.50;99.90
35593;DHT22;64447;52.140;5.602;2023-11-22T00:33:56;7.80;99.90
35593;DHT22;64447;52.140;5.602;2023-11-22T00:38:48;7.40;99.90
35593;DHT22;64447;52.140;5.602;2023-11-22T00:41:13;7.40;99.90
35593;DHT22;64447;52.140;5.602;2023-11-22T00:43:41;7.40;99.90
35593;DHT22;64447;52.140;5.602;2023-11-22T00:46:07;7.40;99.90
35593;DHT22;64447;52.140;5.602;2023-11-22T00:48:33;7.40;99.90
35593;DHT22;64447;52.140;5.602;2023-11-22T00:50:59;7.40;99.90
35593;DHT22;64447;52.140;5.602;2023-11-22T00:53:25;7.50;99.90
35593;DHT22;64447;52.140;5.602;2023-11-22T00:55:50;7.30;99.90
35593;DHT22;64447;52.140;5.602;2023-11-22T00:58:16;7.30;99.90
35593;DHT22;64447;52.140;5.602;2023-11-22T01:00:41;7.20;99.90
35593;DHT22;64447;52.140;5.602;2023-11-22T01:03:07;7.10;99.90
35593;DHT22;64447;52.140;5.602;2023-11-22T01:05:37;7.10;99.90
35593;DHT22;64447;52.140;5.602;2023-11-22T01:08:03;7.10;99.90
35593;DHT22;64447;52.140;5.602;2023-11-22T01:10:28;7.00;99.90
35593;DHT22;64447;52.140;5.602;2023-11-22T01:12:55;6.90;99.90
35593;DHT22;64447;52.140;5.602;2023-11-22T01:15:21;6.90;99.90
35593;DHT22;64447;52.140;5.602;2023-11-22T01:17:47;6.90;99.90
35593;DHT22;64447;52.140;5.602;2023-11-22T01:20:12;6.80;99.90
35593;DHT22;64447;52.140;5.602;2023-11-22T01:22:39;6.80;99.90
35593;DHT22;64447;52.140;5.602;2023-11-22T01:25:05;6.70;99.90
35593;DHT22;64447;52.140;5.602;2023-11-22T01:27:31;6.70;99.90
35593;DHT22;64447;52.140;5.602;2023-11-22T01:29:56;6.60;99.90
35593;DHT22;64447;52.140;5.602;2023-11-22T01:32:22;6.60;99.90
35593;DHT22;64447;52.140;5.602;2023-11-22T01:34:48;6.60;99.90
35593;DHT22;64447;52.140;5.602;2023-11-22T01:37:13;6.40;99.90
35593;DHT22;64447;52.140;5.602;2023-11-22T01:39:40;6.50;99.90
35593;DHT22;64447;52.140;5.602;2023-11-22T01:42:08;6.50;99.90
35593;DHT22;64447;52.140;5.602;2023-11-22T01:44:34;6.40;99.90
35593;DHT22;64447;52.140;5.602;2023-11-22T01:47:01;6.40;99.90
35593;DHT22;64447;52.140;5.602;2023-11-22T01:49:29;6.40;99.90
35593;DHT22;64447;52.140;5.602;2023-11-22T01:51:54;6.50;99.90
35593;DHT22;64447;52.140;5.602;2023-11-22T01:54:22;6.60;99.90
35593;DHT22;64447;52.140;5.602;2023-11-22T01:56:48;6.50;99.90
35593;DHT22;64447;52.140;5.602;2023-11-22T01:59:15;6.50;99.90
35593;DHT22;64447;52.140;5.602;2023-11-22T02:01:42;6.50;99.90
35593;DHT22;64447;52.140;5.602;2023-11-22T02:04:08;6.40;99.90
35593;DHT22;64447;52.140;5.602;2023-11-22T02:06:35;6.40;99.90
35593;DHT22;64447;52.140;5.602;2023-11-22T02:09:01;6.30;99.90
35593;DHT22;64447;52.140;5.602;2023-11-22T02:11:26;6.40;99.90
35593;DHT22;64447;52.140;5.602;2023-11-22T02:13:52;6.30;99.90
35593;DHT22;64447;52.140;5.602;2023-11-22T02:16:19;6.10;99.90
35593;DHT22;64447;52.140;5.602;2023-11-22T02:18:46;6.10;99.90
35593;DHT22;64447;52.140;5.602;2023-11-22T02:21:12;6.10;99.90
35593;DHT22;64447;52.140;5.602;2023-11-22T02:23:38;6.10;99.90
35593;DHT22;64447;52.140;5.602;2023-11-22T02:26:04;6.10;99.90
35593;DHT22;64447;52.140;5.602;2023-11-22T02:28:30;6.20;99.90
35593;DHT22;64447;52.140;5.602;2023-11-22T02:30:55;6.10;99.90
35593;DHT22;64447;52.140;5.602;2023-11-22T02:33:21;6.20;99.90
35593;DHT22;64447;52.140;5.602;2023-11-22T02:35:46;6.10;99.90
35593;DHT22;64447;52.140;5.602;2023-11-22T02:38:12;6.10;99.90
35593;DHT22;64447;52.140;5.602;2023-11-22T02:40:38;6.00;99.90
35593;DHT22;64447;52.140;5.602;2023-11-22T02:43:03;6.10;99.90
35593;DHT22;64447;52.140;5.602;2023-11-22T02:45:34;6.20;99.90
35593;DHT22;64447;52.140;5.602;2023-11-22T02:48:00;6.10;99.90
35593;DHT22;64447;52.140;5.602;2023-11-22T02:50:29;6.10;99.90
35593;DHT22;64447;52.140;5.602;2023-11-22T02:52:57;6.10;99.90
35593;DHT22;64447;52.140;5.602;2023-11-22T02:55:23;6.00;99.90
35593;DHT22;64447;52.140;5.602;2023-11-22T02:57:49;6.10;99.90
35593;DHT22;64447;52.140;5.602;2023-11-22T03:00:15;6.10;99.90
35593;DHT22;64447;52.140;5.602;2023-11-22T03:02:41;6.10;99.90
35593;DHT22;64447;52.140;5.602;2023-11-22T03:05:08;6.10;99.90
35593;DHT22;64447;52.140;5.602;2023-11-22T03:07:35;6.00;99.90
35593;DHT22;64447;52.140;5.602;2023-11-22T03:10:02;5.90;99.90
35593;DHT22;64447;52.140;5.602;2023-11-22T03:14:53;5.20;99.90
35593;DHT22;64447;52.140;5.602;2023-11-22T03:17:24;5.20;99.90
35593;DHT22;64447;52.140;5.602;2023-11-22T03:19:50;5.20;99.90
35593;DHT22;64447;52.140;5.602;2023-11-22T03:22:15;5.30;99.90
35593;DHT22;64447;52.140;5.602;2023-11-22T03:24:41;5.40;99.90
35593;DHT22;64447;52.140;5.602;2023-11-22T03:27:07;5.40;99.90
35593;DHT22;64447;52.140;5.602;2023-11-22T03:29:33;5.40;99.90
35593;DHT22;64447;52.140;5.602;2023-11-22T03:32:00;5.50;99.90
35593;DHT22;64447;52.140;5.602;2023-11-22T03:34:26;5.60;99.90
35593;DHT22;64447;52.140;5.602;2023-11-22T03:36:51;5.60;99.90
35593;DHT22;64447;52.140;5.602;2023-11-22T03:39:17;5.70;99.90
35593;DHT22;64447;52.140;5.602;2023-11-22T03:41:43;5.60;99.90
35593;DHT22;64447;52.140;5.602;2023-11-22T03:44:09;5.60;99.90
35593;DHT22;64447;52.140;5.602;2023-11-22T03:46:38;5.70;99.90
35593;DHT22;64447;52.140;5.602;2023-11-22T03:49:05;6.00;99.90
35593;DHT22;64447;52.140;5.602;2023-11-22T03:51:34;5.60;99.90
35593;DHT22;64447;52.140;5.602;2023-11-22T03:54:01;5.50;99.90
35593;DHT22;64447;52.140;5.602;2023-11-22T03:56:28;5.30;99.90
35593;DHT22;64447;52.140;5.602;2023-11-22T03:58:54;5.40;99.90
35593;DHT22;64447;52.140;5.602;2023-11-22T04:01:20;5.40;99.90
35593;DHT22;64447;52.140;5.602;2023-11-22T04:03:46;5.40;99.90
35593;DHT22;64447;52.140;5.602;2023-11-22T04:06:14;5.30;99.90
35593;DHT22;64447;52.140;5.602;2023-11-22T04:08:42;5.30;99.90
35593;DHT22;64447;52.140;5.602;2023-11-22T04:11:09;5.20;99.90
35593;DHT22;64447;52.140;5.602;2023-11-22T04:13:36;5.00;99.90
35593;DHT22;64447;52.140;5.602;2023-11-22T04:16:02;4.90;99.90
35593;DHT22;64447;52.140;5.602;2023-11-22T04:18:28;5.10;99.90
35593;DHT22;64447;52.140;5.602;2023-11-22T04:20:53;5.20;99.90
35593;DHT22;64447;52.140;5.602;2023-11-22T04:23:20;5.40;99.90
35593;DHT22;64447;52.140;5.602;2023-11-22T04:25:46;5.40;99.90
35593;DHT22;64447;52.140;5.602;2023-11-22T04:28:15;5.40;99.90
35593;DHT22;64447;52.140;5.602;2023-11-22T04:30:40;5.50;99.90
35593;DHT22;64447;52.140;5.602;2023-11-22T04:33:07;5.50;99.90
35593;DHT22;64447;52.140;5.602;2023-11-22T04:35:32;5.60;99.90
35593;DHT22;64447;52.140;5.602;2023-11-22T04:38:02;5.60;99.90
35593;DHT22;64447;52.140;5.602;2023-11-22T04:40:29;5.50;99.90
35593;DHT22;64447;52.140;5.602;2023-11-22T04:42:55;5.50;99.90
35593;DHT22;64447;52.140;5.602;2023-11-22T04:45:20;5.40;99.90
35593;DHT22;64447;52.140;5.602;2023-11-22T04:47:46;5.40;99.90
35593;DHT22;64447;52.140;5.602;2023-11-22T04:50:12;5.50;99.90
35593;DHT22;64447;52.140;5.602;2023-11-22T04:52:38;5.50;99.90
35593;DHT22;64447;52.140;5.602;2023-11-22T04:55:03;5.50;99.90
35593;DHT22;64447;52.140;5.602;2023-11-22T04:57:30;5.40;99.90
35593;DHT22;64447;52.140;5.602;2023-11-22T04:59:55;5.20;99.90
35593;DHT22;64447;52.140;5.602;2023-11-22T05:02:21;5.20;99.90
35593;DHT22;64447;52.140;5.602;2023-11-22T05:04:47;5.30;99.90
35593;DHT22;64447;52.140;5.602;2023-11-22T05:07:14;5.30;99.90
35593;DHT22;64447;52.140;5.602;2023-11-22T05:09:41;5.30;99.90
35593;DHT22;64447;52.140;5.602;2023-11-22T05:12:07;5.30;99.90
35593;DHT22;64447;52.140;5.602;2023-11-22T05:14:32;5.40;99.90
35593;DHT22;64447;52.140;5.602;2023-11-22T05:16:58;5.30;99.90
35593;DHT22;64447;52.140;5.602;2023-11-22T05:19:24;5.30;99.90
35593;DHT22;64447;52.140;5.602;2023-11-22T05:21:50;5.30;99.90
35593;DHT22;64447;52.140;5.602;2023-11-22T05:24:15;5.30;99.90
35593;DHT22;64447;52.140;5.602;2023-11-22T05:26:41;5.30;99.90
35593;DHT22;64447;52.140;5.602;2023-11-22T05:29:07;5.20;99.90
35593;DHT22;64447;52.140;5.602;2023-11-22T05:31:32;5.20;99.90
35593;DHT22;64447;52.140;5.602;2023-11-22T05:33:58;5.10;99.90
35593;DHT22;64447;52.140;5.602;2023-11-22T05:36:23;5.20;99.90
35593;DHT22;64447;52.140;5.602;2023-11-22T05:38:49;5.10;99.90
35593;DHT22;64447;52.140;5.602;2023-11-22T05:41:15;5.00;99.90
35593;DHT22;64447;52.140;5.602;2023-11-22T05:43:41;5.10;99.90
35593;DHT22;64447;52.140;5.602;2023-11-22T05:46:08;5.10;99.90
35593;DHT22;64447;52.140;5.602;2023-11-22T05:48:34;5.10;99.90
35593;DHT22;64447;52.140;5.602;2023-11-22T05:51:00;5.10;99.90
35593;DHT22;64447;52.140;5.602;2023-11-22T05:53:25;5.10;99.90
35593;DHT22;64447;52.140;5.602;2023-11-22T05:55:51;5.20;99.90
35593;DHT22;64447;52.140;5.602;2023-11-22T05:58:18;5.20;99.90
35593;DHT22;64447;52.140;5.602;2023-11-22T06:00:44;5.20;99.90
35593;DHT22;64447;52.140;5.602;2023-11-22T06:03:11;5.20;99.90
35593;DHT22;64447;52.140;5.602;2023-11-22T06:05:37;5.20;99.90
35593;DHT22;64447;52.140;5.602;2023-11-22T06:08:03;5.20;99.90
35593;DHT22;64447;52.140;5.602;2023-11-22T06:10:28;5.20;99.90
35593;DHT22;64447;52.140;5.602;2023-11-22T06:12:54;5.20;99.90
35593;DHT22;64447;52.140;5.602;2023-11-22T06:15:20;5.40;99.90
35593;DHT22;64447;52.140;5.602;2023-11-22T06:17:47;5.20;99.90
35593;DHT22;64447;52.140;5.602;2023-11-22T06:20:14;5.30;99.90
35593;DHT22;64447;52.140;5.602;2023-11-22T06:22:40;5.30;99.90
35593;DHT22;64447;52.140;5.602;2023-11-22T06:25:13;5.30;99.90
35593;DHT22;64447;52.140;5.602;2023-11-22T06:27:38;5.30;99.90
35593;DHT22;64447;52.140;5.602;2023-11-22T06:30:06;5.30;99.90
35593;DHT22;64447;52.140;5.602;2023-11-22T06:32:32;5.40;99.90
35593;DHT22;64447;52.140;5.602;2023-11-22T06:34:58;5.40;99.90
35593;DHT22;64447;52.140;5.602;2023-11-22T06:37:23;5.40;99.90
35593;DHT22;64447;52.140;5.602;2023-11-22T06:39:49;5.40;99.90
35593;DHT22;64447;52.140;5.602;2023-11-22T06:42:16;5.40;99.90
35593;DHT22;64447;52.140;5.602;2023-11-22T06:44:42;5.40;99.90
35593;DHT22;64447;52.140;5.602;2023-11-22T06:47:08;5.30;99.90
35593;DHT22;64447;52.140;5.602;2023-11-22T06:49:34;5.40;99.90
35593;DHT22;64447;52.140;5.602;2023-11-22T06:51:59;5.40;99.90
35593;DHT22;64447;52.140;5.602;2023-11-22T06:54:25;5.30;99.90
35593;DHT22;64447;52.140;5.602;2023-11-22T06:56:51;5.30;99.90
35593;DHT22;64447;52.140;5.602;2023-11-22T06:59:17;5.30;99.90
35593;DHT22;64447;52.140;5.602;2023-11-22T07:01:44;5.30;99.90
35593;DHT22;64447;52.140;5.602;2023-11-22T07:04:11;5.40;99.90
35593;DHT22;64447;52.140;5.602;2023-11-22T07:06:37;5.30;99.90
35593;DHT22;64447;52.140;5.602;2023-11-22T07:09:05;5.30;99.90
35593;DHT22;64447;52.140;5.602;2023-11-22T07:11:31;5.40;99.90
35593;DHT22;64447;52.140;5.602;2023-11-22T07:13:57;5.40;99.90
35593;DHT22;64447;52.140;5.602;2023-11-22T07:16:26;5.20;99.90
35593;DHT22;64447;52.140;5.602;2023-11-22T07:18:51;5.30;99.90
35593;DHT22;64447;52.140;5.602;2023-11-22T07:21:17;5.30;99.90
35593;DHT22;64447;52.140;5.602;2023-11-22T07:23:43;5.30;99.90
35593;DHT22;64447;52.140;5.602;2023-11-22T07:26:10;5.40;99.90
35593;DHT22;64447;52.140;5.602;2023-11-22T07:28:36;5.30;99.90
35593;DHT22;64447;52.140;5.602;2023-11-22T07:31:03;5.30;99.90
35593;DHT22;64447;52.140;5.602;2023-11-22T07:33:31;5.30;99.90
35593;DHT22;64447;52.140;5.602;2023-11-22T07:35:57;5.40;99.90
35593;DHT22;64447;52.140;5.602;2023-11-22T07:38:24;5.30;99.90
35593;DHT22;64447;52.140;5.602;2023-11-22T07:40:50;5.30;99.90
35593;DHT22;64447;52.140;5.602;2023-11-22T07:43:16;5.30;99.90
35593;DHT22;64447;52.140;5.602;2023-11-22T07:45:42;5.30;99.90
35593;DHT22;64447;52.140;5.602;2023-11-22T07:48:10;5.30;99.90
35593;DHT22;64447;52.140;5.602;2023-11-22T07:50:37;5.50;99.90
35593;DHT22;64447;52.140;5.602;2023-11-22T07:53:04;5.50;99.90
35593;DHT22;64447;52.140;5.602;2023-11-22T07:55:31;5.40;99.90
35593;DHT22;64447;52.140;5.602;2023-11-22T07:57:57;5.40;99.90
35593;DHT22;64447;52.140;5.602;2023-11-22T08:00:23;5.50;99.90
35593;DHT22;64447;52.140;5.602;2023-11-22T08:02:49;5.50;99.90
35593;DHT22;64447;52.140;5.602;2023-11-22T08:05:16;5.50;99.90
35593;DHT22;64447;52.140;5.602;2023-11-22T08:07:42;5.60;99.90
35593;DHT22;64447;52.140;5.602;2023-11-22T08:10:10;5.70;99.90
35593;DHT22;64447;52.140;5.602;2023-11-22T08:12:43;5.70;99.90
35593;DHT22;64447;52.140;5.602;2023-11-22T08:15:10;5.80;99.90
35593;DHT22;64447;52.140;5.602;2023-11-22T08:17:39;5.90;99.90
35593;DHT22;64447;52.140;5.602;2023-11-22T08:20:05;5.90;99.90
35593;DHT22;64447;52.140;5.602;2023-11-22T08:22:34;6.00;99.90
35593;DHT22;64447;52.140;5.602;2023-11-22T08:25:03;6.00;99.90
35593;DHT22;64447;52.140;5.602;2023-11-22T08:27:29;6.00;99.90
35593;DHT22;64447;52.140;5.602;2023-11-22T08:29:55;5.90;99.90
35593;DHT22;64447;52.140;5.602;2023-11-22T08:32:21;6.00;99.90
35593;DHT22;64447;52.140;5.602;2023-11-22T08:34:49;6.10;99.90
35593;DHT22;64447;52.140;5.602;2023-11-22T08:37:15;6.10;99.90
35593;DHT22;64447;52.140;5.602;2023-11-22T08:39:41;6.20;99.90
35593;DHT22;64447;52.140;5.602;2023-11-22T08:42:07;6.20;99.90
35593;DHT22;64447;52.140;5.602;2023-11-22T08:44:38;6.20;99.90
35593;DHT22;64447;52.140;5.602;2023-11-22T08:47:04;6.10;99.90
35593;DHT22;64447;52.140;5.602;2023-11-22T08:49:30;6.20;99.90
35593;DHT22;64447;52.140;5.602;2023-11-22T08:51:59;6.20;99.90
35593;DHT22;64447;52.140;5.602;2023-11-22T08:54:28;6.20;99.90
35593;DHT22;64447;52.140;5.602;2023-11-22T08:56:54;6.30;99.90
35593;DHT22;64447;52.140;5.602;2023-11-22T08:59:23;6.40;99.90
35593;DHT22;64447;52.140;5.602;2023-11-22T09:01:48;6.40;99.90
35593;DHT22;64447;52.140;5.602;2023-11-22T09:04:14;6.30;99.90
35593;DHT22;64447;52.140;5.602;2023-11-22T09:06:41;6.30;99.90
35593;DHT22;64447;52.140;5.602;2023-11-22T09:09:07;6.40;99.90
35593;DHT22;64447;52.140;5.602;2023-11-22T09:11:34;6.40;99.90
35593;DHT22;64447;52.140;5.602;2023-11-22T09:14:00;6.40;99.90
35593;DHT22;64447;52.140;5.602;2023-11-22T09:16:35;6.30;99.90
35593;DHT22;64447;52.140;5.602;2023-11-22T09:19:01;6.30;99.90
35593;DHT22;64447;52.140;5.602;2023-11-22T09:21:28;6.30;99.90
35593;DHT22;64447;52.140;5.602;2023-11-22T09:23:55;6.30;99.90
35593;DHT22;64447;52.140;5.602;2023-11-22T09:26:20;6.40;99.90
35593;DHT22;64447;52.140;5.602;2023-11-22T09:28:46;6.60;99.90
35593;DHT22;64447;52.140;5.602;2023-11-22T09:31:11;6.60;99.90
35593;DHT22;64447;52.140;5.602;2023-11-22T09:33:43;6.60;99.90
35593;DHT22;64447;52.140;5.602;2023-11-22T09:36:09;6.50;99.90
35593;DHT22;64447;52.140;5.602;2023-11-22T09:38:34;6.60;99.90
35593;DHT22;64447;52.140;5.602;2023-11-22T09:41:00;6.70;99.90
35593;DHT22;64447;52.140;5.602;2023-11-22T09:43:28;6.70;99.90
35593;DHT22;64447;52.140;5.602;2023-11-22T09:45:54;6.60;99.90
35593;DHT22;64447;52.140;5.602;2023-11-22T09:48:21;6.60;99.90
35593;DHT22;64447;52.140;5.602;2023-11-22T09:51:04;6.70;99.90
35593;DHT22;64447;52.140;5.602;2023-11-22T09:53:36;6.70;99.90
35593;DHT22;64447;52.140;5.602;2023-11-22T09:56:03;6.70;99.90
35593;DHT22;64447;52.140;5.602;2023-11-22T09:58:34;6.60;99.90
35593;DHT22;64447;52.140;5.602;2023-11-22T10:01:01;6.80;99.90
35593;DHT22;64447;52.140;5.602;2023-11-22T10:03:27;6.90;99.90
35593;DHT22;64447;52.140;5.602;2023-11-22T10:05:57;6.80;99.90
35593;DHT22;64447;52.140;5.602;2023-11-22T10:08:27;6.90;99.90
35593;DHT22;64447;52.140;5.602;2023-11-22T10:10:54;6.90;99.90
35593;DHT22;64447;52.140;5.602;2023-11-22T10:13:20;7.00;99.90
35593;DHT22;64447;52.140;5.602;2023-11-22T10:15:49;6.90;99.90
35593;DHT22;64447;52.140;5.602;2023-11-22T10:18:16;7.00;99.90
35593;DHT22;64447;52.140;5.602;2023-11-22T10:20:48;7.00;99.90
35593;DHT22;64447;52.140;5.602;2023-11-22T10:23:15;7.10;99.90
35593;DHT22;64447;52.140;5.602;2023-11-22T10:25:47;7.00;99.90
35593;DHT22;64447;52.140;5.602;2023-11-22T10:28:15;7.00;99.90
35593;DHT22;64447;52.140;5.602;2023-11-22T10:30:45;6.90;99.90
35593;DHT22;64447;52.140;5.602;2023-11-22T10:33:11;6.80;99.90
35593;DHT22;64447;52.140;5.602;2023-11-22T10:35:43;6.80;99.90
35593;DHT22;64447;52.140;5.602;2023-11-22T10:38:09;6.80;99.90
35593;DHT22;64447;52.140;5.602;2023-11-22T10:40:36;6.80;99.90
35593;DHT22;64447;52.140;5.602;2023-11-22T10:43:03;6.70;99.90
35593;DHT22;64447;52.140;5.602;2023-11-22T10:45:30;6.70;99.90
35593;DHT22;64447;52.140;5.602;2023-11-22T10:48:00;6.80;99.90
35593;DHT22;64447;52.140;5.602;2023-11-22T10:50:26;6.90;99.90
35593;DHT22;64447;52.140;5.602;2023-11-22T10:52:56;7.00;99.90
35593;DHT22;64447;52.140;5.602;2023-11-22T10:55:31;7.00;99.90
35593;DHT22;64447;52.140;5.602;2023-11-22T10:58:01;7.00;99.90
35593;DHT22;64447;52.140;5.602;2023-11-22T11:00:27;6.90;99.90
35593;DHT22;64447;52.140;5.602;2023-11-22T11:02:59;6.90;99.90
35593;DHT22;64447;52.140;5.602;2023-11-22T11:05:31;7.00;99.90
35593;DHT22;64447;52.140;5.602;2023-11-22T11:08:11;7.00;99.90
35593;DHT22;64447;52.140;5.602;2023-11-22T11:10:44;7.00;99.90
35593;DHT22;64447;52.140;5.602;2023-11-22T11:13:15;6.90;99.90
35593;DHT22;64447;52.140;5.602;2023-11-22T11:15:42;6.90;99.90
35593;DHT22;64447;52.140;5.602;2023-11-22T11:18:14;6.90;99.90
35593;DHT22;64447;52.140;5.602;2023-11-22T11:20:54;6.90;99.90
35593;DHT22;64447;52.140;5.602;2023-11-22T11:23:25;7.10;99.90
35593;DHT22;64447;52.140;5.602;2023-11-22T11:25:53;7.10;99.90
35593;DHT22;64447;52.140;5.602;2023-11-22T11:28:20;7.20;99.90
35593;DHT22;64447;52.140;5.602;2023-11-22T11:30:47;7.20;99.90
35593;DHT22;64447;52.140;5.602;2023-11-22T11:33:15;7.30;99.90
35593;DHT22;64447;52.140;5.602;2023-11-22T11:35:50;7.40;99.90
35593;DHT22;64447;52.140;5.602;2023-11-22T11:38:36;7.10;99.90
35593;DHT22;64447;52.140;5.602;2023-11-22T11:41:11;7.00;99.90
35593;DHT22;64447;52.140;5.602;2023-11-22T11:43:46;7.00;99.90
35593;DHT22;64447;52.140;5.602;2023-11-22T11:46:12;6.90;99.90
35593;DHT22;64447;52.140;5.602;2023-11-22T11:48:43;6.80;99.90
35593;DHT22;64447;52.140;5.602;2023-11-22T11:51:09;7.00;99.90
35593;DHT22;64447;52.140;5.602;2023-11-22T11:53:35;6.90;99.90
35593;DHT22;64447;52.140;5.602;2023-11-22T11:56:01;7.10;99.90
35593;DHT22;64447;52.140;5.602;2023-11-22T11:58:27;7.30;99.90
35593;DHT22;64447;52.140;5.602;2023-11-22T12:00:54;7.20;99.90
35593;DHT22;64447;52.140;5.602;2023-11-22T12:03:20;7.20;99.90
35593;DHT22;64447;52.140;5.602;2023-11-22T12:05:47;7.20;99.90
35593;DHT22;64447;52.140;5.602;2023-11-22T12:08:13;7.20;99.90
35593;DHT22;64447;52.140;5.602;2023-11-22T12:10:43;7.30;99.90
35593;DHT22;64447;52.140;5.602;2023-11-22T12:13:09;7.30;99.90
35593;DHT22;64447;52.140;5.602;2023-11-22T12:15:35;7.20;99.90
35593;DHT22;64447;52.140;5.602;2023-11-22T12:18:01;7.00;99.90
35593;DHT22;64447;52.140;5.602;2023-11-22T12:20:27;7.10;99.90
35593;DHT22;64447;52.140;5.602;2023-11-22T12:23:00;7.10;99.90
35593;DHT22;64447;52.140;5.602;2023-11-22T12:25:32;7.30;99.90
35593;DHT22;64447;52.140;5.602;2023-11-22T12:27:57;7.50;99.90
35593;DHT22;64447;52.140;5.602;2023-11-22T12:30:35;7.70;99.90
35593;DHT22;64447;52.140;5.602;2023-11-22T12:33:03;7.60;99.90
35593;DHT22;64447;52.140;5.602;2023-11-22T12:35:30;7.50;99.90
35593;DHT22;64447;52.140;5.602;2023-11-22T12:37:58;7.60;99.90
35593;DHT22;64447;52.140;5.602;2023-11-22T12:40:24;7.40;99.90
35593;DHT22;64447;52.140;5.602;2023-11-22T12:42:52;7.40;99.90
35593;DHT22;64447;52.140;5.602;2023-11-22T12:45:23;7.40;99.90
35593;DHT22;64447;52.140;5.602;2023-11-22T12:47:52;7.30;99.90
35593;DHT22;64447;52.140;5.602;2023-11-22T12:50:36;7.40;99.90
35593;DHT22;64447;52.140;5.602;2023-11-22T12:53:12;7.60;99.90
35593;DHT22;64447;52.140;5.602;2023-11-22T12:55:45;7.40;99.90
35593;DHT22;64447;52.140;5.602;2023-11-22T12:58:12;7.40;99.90
35593;DHT22;64447;52.140;5.602;2023-11-22T13:00:38;7.40;99.90
35593;DHT22;64447;52.140;5.602;2023-11-22T13:03:11;7.50;99.90
35593;DHT22;64447;52.140;5.602;2023-11-22T13:05:44;7.50;99.90
35593;DHT22;64447;52.140;5.602;2023-11-22T13:08:11;7.50;99.90
35593;DHT22;64447;52.140;5.602;2023-11-22T13:10:39;7.50;99.90
35593;DHT22;64447;52.140;5.602;2023-11-22T13:13:04;7.40;99.90
35593;DHT22;64447;52.140;5.602;2023-11-22T13:15:34;7.40;99.90
35593;DHT22;64447;52.140;5.602;2023-11-22T13:18:00;7.40;99.90
35593;DHT22;64447;52.140;5.602;2023-11-22T13:20:26;7.50;99.90
35593;DHT22;64447;52.140;5.602;2023-11-22T13:22:53;7.60;99.90
35593;DHT22;64447;52.140;5.602;2023-11-22T13:25:20;7.60;99.90
35593;DHT22;64447;52.140;5.602;2023-11-22T13:27:49;7.50;99.90
35593;DHT22;64447;52.140;5.602;2023-11-22T13:30:15;7.50;99.90
35593;DHT22;64447;52.140;5.602;2023-11-22T13:32:44;7.60;99.90
35593;DHT22;64447;52.140;5.602;2023-11-22T13:35:10;7.60;99.90
35593;DHT22;64447;52.140;5.602;2023-11-22T13:37:45;7.50;99.90
35593;DHT22;64447;52.140;5.602;2023-11-22T13:40:16;7.50;99.90
35593;DHT22;64447;52.140;5.602;2023-11-22T13:42:45;7.50;99.90
35593;DHT22;64447;52.140;5.602;2023-11-22T13:45:12;7.40;99.90
35593;DHT22;64447;52.140;5.602;2023-11-22T13:47:53;7.30;99.90
35593;DHT22;64447;52.140;5.602;2023-11-22T13:50:34;7.30;99.90
35593;DHT22;64447;52.140;5.602;2023-11-22T13:53:00;7.10;99.90
35593;DHT22;64447;52.140;5.602;2023-11-22T13:55:26;6.90;99.90
35593;DHT22;64447;52.140;5.602;2023-11-22T13:57:54;6.90;99.90
35593;DHT22;64447;52.140;5.602;2023-11-22T14:00:21;6.80;99.90
35593;DHT22;64447;52.140;5.602;2023-11-22T14:02:56;6.90;99.90
35593;DHT22;64447;52.140;5.602;2023-11-22T14:05:26;7.00;99.90
35593;DHT22;64447;52.140;5.602;2023-11-22T14:07:52;7.10;99.90
35593;DHT22;64447;52.140;5.602;2023-11-22T14:10:18;7.10;99.90
35593;DHT22;64447;52.140;5.602;2023-11-22T14:12:44;7.10;99.90
35593;DHT22;64447;52.140;5.602;2023-11-22T14:15:11;7.10;99.90
35593;DHT22;64447;52.140;5.602;2023-11-22T14:17:37;7.10;99.90
35593;DHT22;64447;52.140;5.602;2023-11-22T14:20:12;7.10;99.90
35593;DHT22;64447;52.140;5.602;2023-11-22T14:22:39;7.10;99.90
35593;DHT22;64447;52.140;5.602;2023-11-22T14:25:09;7.10;99.90
35593;DHT22;64447;52.140;5.602;2023-11-22T14:27:40;7.00;99.90
35593;DHT22;64447;52.140;5.602;2023-11-22T14:30:10;7.10;99.90
35593;DHT22;64447;52.140;5.602;2023-11-22T14:32:39;7.00;99.90
35593;DHT22;64447;52.140;5.602;2023-11-22T14:35:06;7.00;99.90
35593;DHT22;64447;52.140;5.602;2023-11-22T14:37:35;7.00;99.90
35593;DHT22;64447;52.140;5.602;2023-11-22T14:40:03;7.10;99.90
35593;DHT22;64447;52.140;5.602;2023-11-22T14:42:41;7.10;99.90
35593;DHT22;64447;52.140;5.602;2023-11-22T14:45:07;7.20;99.90
35593;DHT22;64447;52.140;5.602;2023-11-22T14:47:33;7.10;99.90
35593;DHT22;64447;52.140;5.602;2023-11-22T14:50:02;7.10;99.90
35593;DHT22;64447;52.140;5.602;2023-11-22T14:52:31;7.00;99.90
35593;DHT22;64447;52.140;5.602;2023-11-22T14:54:57;6.90;99.90
35593;DHT22;64447;52.140;5.602;2023-11-22T14:57:25;6.90;99.90
35593;DHT22;64447;52.140;5.602;2023-11-22T14:59:51;6.90;99.90
35593;DHT22;64447;52.140;5.602;2023-11-22T15:02:17;6.90;99.90
35593;DHT22;64447;52.140;5.602;2023-11-22T15:04:44;7.10;99.90
35593;DHT22;64447;52.140;5.602;2023-11-22T15:07:11;7.30;99.90
35593;DHT22;64447;52.140;5.602;2023-11-22T15:09:37;7.20;99.90
35593;DHT22;64447;52.140;5.602;2023-11-22T15:12:03;7.20;99.90
35593;DHT22;64447;52.140;5.602;2023-11-22T15:14:30;7.10;99.90
35593;DHT22;64447;52.140;5.602;2023-11-22T15:16:56;7.00;99.90
35593;DHT22;64447;52.140;5.602;2023-11-22T15:19:22;7.00;99.90
35593;DHT22;64447;52.140;5.602;2023-11-22T15:21:52;7.00;99.90
35593;DHT22;64447;52.140;5.602;2023-11-22T15:24:19;7.10;99.90
35593;DHT22;64447;52.140;5.602;2023-11-22T15:26:44;7.00;99.90
35593;DHT22;64447;52.140;5.602;2023-11-22T15:29:10;7.00;99.90
35593;DHT22;64447;52.140;5.602;2023-11-22T15:31:36;6.90;99.90
35593;DHT22;64447;52.140;5.602;2023-11-22T15:34:01;6.80;99.90
35593;DHT22;64447;52.140;5.602;2023-11-22T15:36:28;6.80;99.90
35593;DHT22;64447;52.140;5.602;2023-11-22T15:38:53;6.70;99.90
35593;DHT22;64447;52.140;5.602;2023-11-22T15:41:19;6.60;99.90
35593;DHT22;64447;52.140;5.602;2023-11-22T15:43:45;6.60;99.90
35593;DHT22;64447;52.140;5.602;2023-11-22T15:46:12;6.50;99.90
35593;DHT22;64447;52.140;5.602;2023-11-22T15:48:38;6.40;99.90
35593;DHT22;64447;52.140;5.602;2023-11-22T15:51:04;6.40;99.90